sensor_id;sensor_type;location;lat;lon;timestamp;pressure;altitude;pressure_sealevel;temperature;humidity
74270;BME280;62754;48.252;11.654;2023-04-04T00:00:17;96831.47;;;0.27;62.40
74270;BME280;62754;48.252;11.654;2023-04-04T00:02:47;96827.78;;;0.08;62.58
74270;BME280;62754;48.252;11.654;2023-04-04T00:05:16;96824.13;;;0.16;62.82
74270;BME280;62754;48.252;11.654;2023-04-04T00:07:45;96823.31;;;0.16;62.72
74270;BME280;62754;48.252;11.654;2023-04-04T00:10:11;96824.09;;;0.18;62.31
74270;BME280;62754;48.252;11.654;2023-04-04T00:12:36;96821.38;;;0.24;61.91
74270;BME280;62754;48.252;11.654;2023-04-04T00:15:02;96816.59;;;0.15;62.61
74270;BME280;62754;48.252;11.654;2023-04-04T00:17:28;96815.84;;;0.11;62.51
74270;BME280;62754;48.252;11.654;2023-04-04T00:19:56;96815.44;;;-0.05;62.67
74270;BME280;62754;48.252;11.654;2023-04-04T00:22:25;96820.50;;;-0.05;62.73
74270;BME280;62754;48.252;11.654;2023-04-04T00:24:52;96812.38;;;-0.16;63.10
74270;BME280;62754;48.252;11.654;2023-04-04T00:27:18;96809.03;;;-0.18;64.06
74270;BME280;62754;48.252;11.654;2023-04-04T00:29:44;96805.53;;;-0.14;63.22
74270;BME280;62754;48.252;11.654;2023-04-04T00:32:10;96813.31;;;-0.20;64.03
74270;BME280;62754;48.252;11.654;2023-04-04T00:34:38;96804.81;;;-0.19;63.34
74270;BME280;62754;48.252;11.654;2023-04-04T00:37:04;96807.75;;;-0.34;64.19
74270;BME280;62754;48.252;11.654;2023-04-04T00:39:29;96800.78;;;-0.26;63.92
74270;BME280;62754;48.252;11.654;2023-04-04T00:41:55;96805.75;;;-0.21;64.50
74270;BME280;62754;48.252;11.654;2023-04-04T00:44:21;96795.66;;;-0.23;63.69
74270;BME280;62754;48.252;11.654;2023-04-04T00:46:47;96793.25;;;-0.27;64.00
74270;BME280;62754;48.252;11.654;2023-04-04T00:49:13;96792.47;;;-0.31;64.16
74270;BME280;62754;48.252;11.654;2023-04-04T00:51:38;96787.16;;;-0.53;64.96
74270;BME280;62754;48.252;11.654;2023-04-04T00:54:09;96789.38;;;-0.40;64.33
74270;BME280;62754;48.252;11.654;2023-04-04T00:56:38;96789.22;;;-0.67;65.11
74270;BME280;62754;48.252;11.654;2023-04-04T00:59:09;96785.97;;;-0.73;65.67
74270;BME280;62754;48.252;11.654;2023-04-04T01:01:37;96794.38;;;-0.71;65.33
74270;BME280;62754;48.252;11.654;2023-04-04T01:04:05;96785.88;;;-0.69;65.62
74270;BME280;62754;48.252;11.654;2023-04-04T01:06:31;96780.81;;;-0.69;65.39
74270;BME280;62754;48.252;11.654;2023-04-04T01:08:57;96779.63;;;-0.54;65.20
74270;BME280;62754;48.252;11.654;2023-04-04T01:11:25;96779.94;;;-0.68;65.38
74270;BME280;62754;48.252;11.654;2023-04-04T01:13:51;96777.22;;;-0.60;64.99
74270;BME280;62754;48.252;11.654;2023-04-04T01:16:16;96786.06;;;-0.76;65.36
74270;BME280;62754;48.252;11.654;2023-04-04T01:18:45;96777.53;;;-0.72;65.21
74270;BME280;62754;48.252;11.654;2023-04-04T01:21:13;96770.75;;;-0.70;64.74
74270;BME280;62754;48.252;11.654;2023-04-04T01:23:48;96768.34;;;-0.75;65.08
74270;BME280;62754;48.252;11.654;2023-04-04T01:26:20;96767.66;;;-0.81;65.39
74270;BME280;62754;48.252;11.654;2023-04-04T01:28:46;96761.56;;;-0.74;65.26
74270;BME280;62754;48.252;11.654;2023-04-04T01:31:13;96763.88;;;-0.99;65.57
74270;BME280;62754;48.252;11.654;2023-04-04T01:33:44;96759.94;;;-1.11;66.17
74270;BME280;62754;48.252;11.654;2023-04-04T01:36:40;96757.09;;;-0.97;65.15
74270;BME280;62754;48.252;11.654;2023-04-04T01:39:21;96755.88;;;-0.82;64.84
74270;BME280;62754;48.252;11.654;2023-04-04T01:41:50;96744.94;;;-0.84;64.67
74270;BME280;62754;48.252;11.654;2023-04-04T01:44:19;96748.75;;;-1.01;65.61
74270;BME280;62754;48.252;11.654;2023-04-04T01:46:51;96749.72;;;-1.06;66.04
74270;BME280;62754;48.252;11.654;2023-04-04T01:49:20;96750.47;;;-1.03;65.80
74270;BME280;62754;48.252;11.654;2023-04-04T01:51:47;96750.16;;;-0.90;65.40
74270;BME280;62754;48.252;11.654;2023-04-04T01:54:13;96745.94;;;-0.90;65.01
74270;BME280;62754;48.252;11.654;2023-04-04T01:56:38;96744.66;;;-1.06;65.63
74270;BME280;62754;48.252;11.654;2023-04-04T01:59:04;96742.31;;;-1.14;65.33
74270;BME280;62754;48.252;11.654;2023-04-04T02:01:33;96748.84;;;-1.05;65.73
74270;BME280;62754;48.252;11.654;2023-04-04T02:04:01;96746.44;;;-1.10;66.00
74270;BME280;62754;48.252;11.654;2023-04-04T02:06:32;96746.50;;;-1.13;66.05
74270;BME280;62754;48.252;11.654;2023-04-04T02:09:00;96754.94;;;-1.14;65.75
74270;BME280;62754;48.252;11.654;2023-04-04T02:11:26;96745.69;;;-1.13;65.93
74270;BME280;62754;48.252;11.654;2023-04-04T02:13:51;96750.69;;;-1.12;66.09
74270;BME280;62754;48.252;11.654;2023-04-04T02:16:22;96748.34;;;-1.19;66.22
74270;BME280;62754;48.252;11.654;2023-04-04T02:18:50;96744.75;;;-1.09;65.51
74270;BME280;62754;48.252;11.654;2023-04-04T02:21:20;96749.41;;;-1.28;66.03
74270;BME280;62754;48.252;11.654;2023-04-04T02:23:46;96741.16;;;-1.36;66.38
74270;BME280;62754;48.252;11.654;2023-04-04T02:26:14;96743.44;;;-1.27;66.41
74270;BME280;62754;48.252;11.654;2023-04-04T02:28:40;96745.13;;;-1.26;66.71
74270;BME280;62754;48.252;11.654;2023-04-04T02:31:08;96740.41;;;-1.39;66.30
74270;BME280;62754;48.252;11.654;2023-04-04T02:33:36;96733.75;;;-1.43;66.49
74270;BME280;62754;48.252;11.654;2023-04-04T02:36:05;96733.22;;;-1.21;65.98
74270;BME280;62754;48.252;11.654;2023-04-04T02:38:33;96736.59;;;-1.20;65.79
74270;BME280;62754;48.252;11.654;2023-04-04T02:41:01;96732.78;;;-1.38;66.13
74270;BME280;62754;48.252;11.654;2023-04-04T02:43:27;96734.34;;;-1.34;65.82
74270;BME280;62754;48.252;11.654;2023-04-04T02:45:55;96737.13;;;-1.43;66.58
74270;BME280;62754;48.252;11.654;2023-04-04T02:48:21;96735.78;;;-1.59;67.36
74270;BME280;62754;48.252;11.654;2023-04-04T02:50:49;96736.47;;;-1.51;66.93
74270;BME280;62754;48.252;11.654;2023-04-04T02:53:18;96740.09;;;-1.63;67.30
74270;BME280;62754;48.252;11.654;2023-04-04T02:55:46;96736.72;;;-1.63;67.64
74270;BME280;62754;48.252;11.654;2023-04-04T02:58:17;96740.94;;;-1.62;67.72
74270;BME280;62754;48.252;11.654;2023-04-04T03:00:47;96739.78;;;-1.51;67.25
74270;BME280;62754;48.252;11.654;2023-04-04T03:03:17;96738.84;;;-1.47;67.26
74270;BME280;62754;48.252;11.654;2023-04-04T03:05:43;96729.97;;;-1.63;67.52
74270;BME280;62754;48.252;11.654;2023-04-04T03:08:11;96734.22;;;-1.65;67.42
74270;BME280;62754;48.252;11.654;2023-04-04T03:10:37;96719.50;;;-1.84;67.83
74270;BME280;62754;48.252;11.654;2023-04-04T03:13:07;96731.97;;;-1.77;68.27
74270;BME280;62754;48.252;11.654;2023-04-04T03:15:37;96728.47;;;-1.71;67.85
74270;BME280;62754;48.252;11.654;2023-04-04T03:18:03;96729.31;;;-1.71;67.72
74270;BME280;62754;48.252;11.654;2023-04-04T03:20:29;96731.25;;;-1.82;68.39
74270;BME280;62754;48.252;11.654;2023-04-04T03:22:57;96732.69;;;-1.72;68.33
74270;BME280;62754;48.252;11.654;2023-04-04T03:25:25;96733.94;;;-1.89;68.43
74270;BME280;62754;48.252;11.654;2023-04-04T03:27:51;96729.75;;;-1.90;68.51
74270;BME280;62754;48.252;11.654;2023-04-04T03:30:17;96723.56;;;-1.77;68.48
74270;BME280;62754;48.252;11.654;2023-04-04T03:32:42;96731.59;;;-1.99;68.60
74270;BME280;62754;48.252;11.654;2023-04-04T03:35:11;96726.97;;;-1.78;68.20
74270;BME280;62754;48.252;11.654;2023-04-04T03:37:39;96727.91;;;-1.84;68.47
74270;BME280;62754;48.252;11.654;2023-04-04T03:40:08;96726.19;;;-1.82;67.98
74270;BME280;62754;48.252;11.654;2023-04-04T03:42:34;96736.31;;;-1.83;67.73
74270;BME280;62754;48.252;11.654;2023-04-04T03:45:00;96729.75;;;-1.92;67.73
74270;BME280;62754;48.252;11.654;2023-04-04T03:47:25;96733.88;;;-1.86;67.93
74270;BME280;62754;48.252;11.654;2023-04-04T03:49:51;96742.16;;;-1.81;67.46
74270;BME280;62754;48.252;11.654;2023-04-04T03:52:17;96737.38;;;-1.94;67.48
74270;BME280;62754;48.252;11.654;2023-04-04T03:54:45;96742.22;;;-1.84;67.34
74270;BME280;62754;48.252;11.654;2023-04-04T03:57:13;96737.16;;;-1.83;67.34
74270;BME280;62754;48.252;11.654;2023-04-04T03:59:41;96744.06;;;-1.91;67.58
74270;BME280;62754;48.252;11.654;2023-04-04T04:02:07;96745.00;;;-1.97;68.06
74270;BME280;62754;48.252;11.654;2023-04-04T04:04:35;96732.66;;;-2.09;68.05
74270;BME280;62754;48.252;11.654;2023-04-04T04:07:01;96739.44;;;-2.12;68.66
74270;BME280;62754;48.252;11.654;2023-04-04T04:09:31;96741.97;;;-2.12;68.02
74270;BME280;62754;48.252;11.654;2023-04-04T04:11:57;96745.44;;;-2.18;68.43
74270;BME280;62754;48.252;11.654;2023-04-04T04:14:28;96750.47;;;-2.16;68.42
74270;BME280;62754;48.252;11.654;2023-04-04T04:16:56;96749.59;;;-2.15;68.50
74270;BME280;62754;48.252;11.654;2023-04-04T04:19:24;96752.19;;;-2.18;67.93
74270;BME280;62754;48.252;11.654;2023-04-04T04:21:52;96748.06;;;-2.24;68.51
74270;BME280;62754;48.252;11.654;2023-04-04T04:24:20;96747.13;;;-2.17;68.47
74270;BME280;62754;48.252;11.654;2023-04-04T04:26:48;96751.44;;;-2.23;68.59
74270;BME280;62754;48.252;11.654;2023-04-04T04:29:16;96754.94;;;-2.30;69.11
74270;BME280;62754;48.252;11.654;2023-04-04T04:31:42;96756.16;;;-2.07;68.11
74270;BME280;62754;48.252;11.654;2023-04-04T04:34:10;96746.47;;;-2.26;68.67
74270;BME280;62754;48.252;11.654;2023-04-04T04:36:36;96760.75;;;-2.25;68.99
74270;BME280;62754;48.252;11.654;2023-04-04T04:39:01;96761.28;;;-2.10;68.50
74270;BME280;62754;48.252;11.654;2023-04-04T04:41:28;96759.84;;;-2.23;68.92
74270;BME280;62754;48.252;11.654;2023-04-04T04:43:56;96760.50;;;-2.13;68.62
74270;BME280;62754;48.252;11.654;2023-04-04T04:46:24;96760.53;;;-2.15;68.36
74270;BME280;62754;48.252;11.654;2023-04-04T04:48:50;96768.28;;;-2.24;68.69
74270;BME280;62754;48.252;11.654;2023-04-04T04:51:18;96763.81;;;-2.11;68.42
74270;BME280;62754;48.252;11.654;2023-04-04T04:53:46;96755.16;;;-2.41;69.10
74270;BME280;62754;48.252;11.654;2023-04-04T04:56:13;96764.34;;;-2.37;69.61
74270;BME280;62754;48.252;11.654;2023-04-04T04:58:41;96751.41;;;-2.20;69.20
74270;BME280;62754;48.252;11.654;2023-04-04T05:01:09;96764.88;;;-2.21;69.10
74270;BME280;62754;48.252;11.654;2023-04-04T05:03:35;96767.50;;;-2.27;69.50
74270;BME280;62754;48.252;11.654;2023-04-04T05:06:06;96770.06;;;-2.29;69.62
74270;BME280;62754;48.252;11.654;2023-04-04T05:08:34;96765.31;;;-2.44;70.00
74270;BME280;62754;48.252;11.654;2023-04-04T05:11:02;96769.25;;;-2.31;69.78
74270;BME280;62754;48.252;11.654;2023-04-04T05:13:28;96764.44;;;-2.43;70.00
74270;BME280;62754;48.252;11.654;2023-04-04T05:15:53;96771.81;;;-2.32;70.10
74270;BME280;62754;48.252;11.654;2023-04-04T05:18:19;96772.88;;;-2.44;70.62
74270;BME280;62754;48.252;11.654;2023-04-04T05:20:50;96781.28;;;-2.44;70.67
74270;BME280;62754;48.252;11.654;2023-04-04T05:23:16;96774.97;;;-2.21;70.01
74270;BME280;62754;48.252;11.654;2023-04-04T05:25:41;96771.47;;;-2.16;69.62
74270;BME280;62754;48.252;11.654;2023-04-04T05:28:07;96785.78;;;-2.15;69.62
74270;BME280;62754;48.252;11.654;2023-04-04T05:30:35;96779.66;;;-2.05;69.38
74270;BME280;62754;48.252;11.654;2023-04-04T05:33:04;96786.22;;;-1.95;68.38
74270;BME280;62754;48.252;11.654;2023-04-04T05:35:32;96779.44;;;-1.93;68.71
74270;BME280;62754;48.252;11.654;2023-04-04T05:37:57;96778.50;;;-1.88;68.88
74270;BME280;62754;48.252;11.654;2023-04-04T05:40:23;96776.88;;;-1.89;68.43
74270;BME280;62754;48.252;11.654;2023-04-04T05:42:58;96783.47;;;-1.84;68.41
74270;BME280;62754;48.252;11.654;2023-04-04T05:45:24;96791.53;;;-1.67;68.19
74270;BME280;62754;48.252;11.654;2023-04-04T05:47:55;96785.50;;;-1.60;67.43
74270;BME280;62754;48.252;11.654;2023-04-04T05:50:21;96792.03;;;-1.51;67.22
74270;BME280;62754;48.252;11.654;2023-04-04T05:52:46;96786.22;;;-1.55;67.45
74270;BME280;62754;48.252;11.654;2023-04-04T05:55:12;96788.09;;;-1.63;67.41
74270;BME280;62754;48.252;11.654;2023-04-04T05:57:46;96782.88;;;-1.57;67.55
74270;BME280;62754;48.252;11.654;2023-04-04T06:00:12;96782.69;;;-1.48;66.80
74270;BME280;62754;48.252;11.654;2023-04-04T06:02:43;96783.69;;;-1.18;65.66
74270;BME280;62754;48.252;11.654;2023-04-04T06:05:11;96783.84;;;-1.24;65.58
74270;BME280;62754;48.252;11.654;2023-04-04T06:07:39;96790.59;;;-1.24;65.93
74270;BME280;62754;48.252;11.654;2023-04-04T06:10:10;96779.78;;;-1.31;66.69
74270;BME280;62754;48.252;11.654;2023-04-04T06:12:38;96784.47;;;-1.16;65.96
74270;BME280;62754;48.252;11.654;2023-04-04T06:15:04;96789.22;;;-1.01;65.20
74270;BME280;62754;48.252;11.654;2023-04-04T06:17:29;96785.88;;;-1.04;65.38
74270;BME280;62754;48.252;11.654;2023-04-04T06:19:57;96779.78;;;-0.96;64.83
74270;BME280;62754;48.252;11.654;2023-04-04T06:22:23;96791.84;;;-1.05;65.14
74270;BME280;62754;48.252;11.654;2023-04-04T06:24:49;96775.56;;;-0.95;64.99
74270;BME280;62754;48.252;11.654;2023-04-04T06:27:17;96785.41;;;-0.83;64.25
74270;BME280;62754;48.252;11.654;2023-04-04T06:29:45;96783.81;;;-0.87;64.83
74270;BME280;62754;48.252;11.654;2023-04-04T06:32:11;96782.66;;;-0.74;64.70
74270;BME280;62754;48.252;11.654;2023-04-04T06:34:42;96773.88;;;-0.61;64.17
74270;BME280;62754;48.252;11.654;2023-04-04T06:37:07;96783.38;;;-0.38;63.05
74270;BME280;62754;48.252;11.654;2023-04-04T06:39:33;96787.38;;;-0.29;63.46
74270;BME280;62754;48.252;11.654;2023-04-04T06:42:04;96786.47;;;-0.27;62.95
74270;BME280;62754;48.252;11.654;2023-04-04T06:44:35;96779.47;;;-0.17;62.60
74270;BME280;62754;48.252;11.654;2023-04-04T06:47:03;96784.34;;;-0.11;62.54
74270;BME280;62754;48.252;11.654;2023-04-04T06:49:28;96784.84;;;0.03;62.59
74270;BME280;62754;48.252;11.654;2023-04-04T06:51:58;96782.31;;;0.02;61.39
74270;BME280;62754;48.252;11.654;2023-04-04T06:54:29;96788.19;;;0.04;60.78
74270;BME280;62754;48.252;11.654;2023-04-04T06:56:55;96781.59;;;0.27;59.94
74270;BME280;62754;48.252;11.654;2023-04-04T06:59:20;96777.31;;;0.29;60.06
74270;BME280;62754;48.252;11.654;2023-04-04T07:01:49;96777.94;;;0.37;60.81
74270;BME280;62754;48.252;11.654;2023-04-04T07:04:17;96781.44;;;0.61;60.19
74270;BME280;62754;48.252;11.654;2023-04-04T07:06:46;96774.81;;;0.57;59.70
74270;BME280;62754;48.252;11.654;2023-04-04T07:09:11;96773.91;;;0.58;60.58
74270;BME280;62754;48.252;11.654;2023-04-04T07:11:39;96768.25;;;0.78;59.73
74270;BME280;62754;48.252;11.654;2023-04-04T07:14:05;96772.06;;;0.91;58.66
74270;BME280;62754;48.252;11.654;2023-04-04T07:16:31;96767.28;;;1.08;57.79
74270;BME280;62754;48.252;11.654;2023-04-04T07:18:59;96764.06;;;1.29;57.60
74270;BME280;62754;48.252;11.654;2023-04-04T07:21:27;96778.59;;;1.24;56.08
74270;BME280;62754;48.252;11.654;2023-04-04T07:23:55;96769.75;;;1.36;55.28
74270;BME280;62754;48.252;11.654;2023-04-04T07:26:25;96773.97;;;1.62;54.49
74270;BME280;62754;48.252;11.654;2023-04-04T07:28:51;96775.69;;;1.61;55.46
74270;BME280;62754;48.252;11.654;2023-04-04T07:31:19;96774.94;;;1.82;52.31
74270;BME280;62754;48.252;11.654;2023-04-04T07:33:50;96771.91;;;1.73;52.21
74270;BME280;62754;48.252;11.654;2023-04-04T07:36:18;96774.31;;;2.01;54.04
74270;BME280;62754;48.252;11.654;2023-04-04T07:38:48;96768.84;;;2.11;51.23
74270;BME280;62754;48.252;11.654;2023-04-04T07:41:14;96758.88;;;2.05;50.61
74270;BME280;62754;48.252;11.654;2023-04-04T07:43:39;96769.44;;;2.18;50.58
74270;BME280;62754;48.252;11.654;2023-04-04T07:46:07;96764.38;;;2.39;48.66
74270;BME280;62754;48.252;11.654;2023-04-04T07:48:33;96773.13;;;2.77;47.39
74270;BME280;62754;48.252;11.654;2023-04-04T07:51:02;96763.03;;;2.74;46.90
74270;BME280;62754;48.252;11.654;2023-04-04T07:53:27;96756.78;;;3.05;47.30
74270;BME280;62754;48.252;11.654;2023-04-04T07:55:53;96760.81;;;3.30;45.71
74270;BME280;62754;48.252;11.654;2023-04-04T07:58:19;96764.19;;;3.31;45.54
74270;BME280;62754;48.252;11.654;2023-04-04T08:00:45;96762.22;;;3.58;44.98
74270;BME280;62754;48.252;11.654;2023-04-04T08:03:13;96767.22;;;4.00;42.41
74270;BME280;62754;48.252;11.654;2023-04-04T08:05:40;96763.19;;;3.55;42.44
74270;BME280;62754;48.252;11.654;2023-04-04T08:08:06;96772.72;;;3.91;42.31
74270;BME280;62754;48.252;11.654;2023-04-04T08:10:31;96773.13;;;4.20;41.95
74270;BME280;62754;48.252;11.654;2023-04-04T08:12:59;96764.78;;;4.36;41.19
74270;BME280;62754;48.252;11.654;2023-04-04T08:15:25;96764.78;;;4.17;41.95
74270;BME280;62754;48.252;11.654;2023-04-04T08:17:51;96761.88;;;4.62;41.24
74270;BME280;62754;48.252;11.654;2023-04-04T08:20:17;96767.13;;;4.40;43.23
74270;BME280;62754;48.252;11.654;2023-04-04T08:22:43;96768.28;;;5.06;41.99
74270;BME280;62754;48.252;11.654;2023-04-04T08:25:14;96756.31;;;4.90;42.32
74270;BME280;62754;48.252;11.654;2023-04-04T08:27:44;96765.34;;;5.14;40.21
74270;BME280;62754;48.252;11.654;2023-04-04T08:30:11;96760.09;;;5.68;38.25
74270;BME280;62754;48.252;11.654;2023-04-04T08:32:37;96762.28;;;6.42;37.01
74270;BME280;62754;48.252;11.654;2023-04-04T08:35:05;96761.13;;;7.26;35.79
74270;BME280;62754;48.252;11.654;2023-04-04T08:37:31;96765.16;;;7.59;37.24
74270;BME280;62754;48.252;11.654;2023-04-04T08:39:57;96761.59;;;6.55;37.78
74270;BME280;62754;48.252;11.654;2023-04-04T08:42:24;96769.44;;;5.35;37.56
74270;BME280;62754;48.252;11.654;2023-04-04T08:44:56;96767.06;;;4.96;40.31
74270;BME280;62754;48.252;11.654;2023-04-04T08:47:24;96765.25;;;4.62;40.10
74270;BME280;62754;48.252;11.654;2023-04-04T08:49:53;96766.22;;;4.41;39.26
74270;BME280;62754;48.252;11.654;2023-04-04T08:52:19;96769.88;;;4.17;39.24
74270;BME280;62754;48.252;11.654;2023-04-04T08:54:48;96767.81;;;4.62;38.88
74270;BME280;62754;48.252;11.654;2023-04-04T08:57:17;96762.63;;;6.03;39.04
74270;BME280;62754;48.252;11.654;2023-04-04T08:59:43;96771.69;;;5.75;35.31
74270;BME280;62754;48.252;11.654;2023-04-04T09:04:37;96774.34;;;5.40;37.39
74270;BME280;62754;48.252;11.654;2023-04-04T09:07:06;96767.16;;;5.12;38.42
74270;BME280;62754;48.252;11.654;2023-04-04T09:09:36;96773.34;;;5.42;37.90
74270;BME280;62754;48.252;11.654;2023-04-04T09:12:02;96768.16;;;5.26;37.01
74270;BME280;62754;48.252;11.654;2023-04-04T09:14:31;96773.25;;;4.73;40.00
74270;BME280;62754;48.252;11.654;2023-04-04T09:17:00;96769.19;;;4.69;38.59
74270;BME280;62754;48.252;11.654;2023-04-04T09:19:31;96781.19;;;4.86;39.04
74270;BME280;62754;48.252;11.654;2023-04-04T09:21:56;96775.53;;;4.42;39.13
74270;BME280;62754;48.252;11.654;2023-04-04T09:24:36;96766.56;;;4.52;41.53
74270;BME280;62754;48.252;11.654;2023-04-04T09:27:02;96773.41;;;4.70;38.58
74270;BME280;62754;48.252;11.654;2023-04-04T09:29:30;96771.66;;;4.90;40.26
74270;BME280;62754;48.252;11.654;2023-04-04T09:31:57;96781.84;;;4.90;40.09
74270;BME280;62754;48.252;11.654;2023-04-04T09:34:27;96777.16;;;6.35;37.14
74270;BME280;62754;48.252;11.654;2023-04-04T09:36:56;96770.34;;;6.98;34.28
74270;BME280;62754;48.252;11.654;2023-04-04T09:39:24;96777.44;;;6.78;36.14
74270;BME280;62754;48.252;11.654;2023-04-04T09:41:53;96780.75;;;6.48;35.28
74270;BME280;62754;48.252;11.654;2023-04-04T09:44:22;96778.38;;;5.61;35.64
74270;BME280;62754;48.252;11.654;2023-04-04T09:46:53;96792.44;;;5.35;36.95
74270;BME280;62754;48.252;11.654;2023-04-04T09:49:31;96782.53;;;5.46;36.71
74270;BME280;62754;48.252;11.654;2023-04-04T09:51:58;96779.94;;;5.12;37.51
74270;BME280;62754;48.252;11.654;2023-04-04T09:54:26;96781.97;;;4.87;37.99
74270;BME280;62754;48.252;11.654;2023-04-04T09:56:54;96777.03;;;5.19;38.43
74270;BME280;62754;48.252;11.654;2023-04-04T09:59:22;96786.56;;;5.33;37.67
74270;BME280;62754;48.252;11.654;2023-04-04T10:01:53;96780.94;;;5.09;37.48
74270;BME280;62754;48.252;11.654;2023-04-04T10:04:19;96782.75;;;5.24;39.77
74270;BME280;62754;48.252;11.654;2023-04-04T10:06:46;96784.47;;;5.58;38.56
74270;BME280;62754;48.252;11.654;2023-04-04T10:09:14;96783.41;;;5.45;37.61
74270;BME280;62754;48.252;11.654;2023-04-04T10:11:40;96783.44;;;5.28;37.41
74270;BME280;62754;48.252;11.654;2023-04-04T10:14:08;96779.09;;;5.11;38.39
74270;BME280;62754;48.252;11.654;2023-04-04T10:16:34;96789.44;;;5.44;38.98
74270;BME280;62754;48.252;11.654;2023-04-04T10:19:04;96784.72;;;5.37;38.09
74270;BME280;62754;48.252;11.654;2023-04-04T10:21:30;96788.47;;;5.47;37.91
74270;BME280;62754;48.252;11.654;2023-04-04T10:23:59;96779.47;;;5.04;37.76
74270;BME280;62754;48.252;11.654;2023-04-04T10:26:27;96784.69;;;4.65;38.56
74270;BME280;62754;48.252;11.654;2023-04-04T10:28:53;96771.84;;;4.85;39.03
74270;BME280;62754;48.252;11.654;2023-04-04T10:31:27;96784.38;;;5.08;38.06
74270;BME280;62754;48.252;11.654;2023-04-04T10:34:35;96781.44;;;5.16;38.74
74270;BME280;62754;48.252;11.654;2023-04-04T10:37:11;96773.41;;;5.23;38.16
74270;BME280;62754;48.252;11.654;2023-04-04T10:39:48;96781.19;;;5.03;38.93
74270;BME280;62754;48.252;11.654;2023-04-04T10:42:21;96781.47;;;5.50;37.25
74270;BME280;62754;48.252;11.654;2023-04-04T10:44:47;96785.00;;;5.48;38.07
74270;BME280;62754;48.252;11.654;2023-04-04T10:47:24;96775.34;;;5.18;36.33
74270;BME280;62754;48.252;11.654;2023-04-04T10:49:51;96774.53;;;5.52;36.59
74270;BME280;62754;48.252;11.654;2023-04-04T10:52:19;96779.91;;;6.15;37.20
74270;BME280;62754;48.252;11.654;2023-04-04T10:54:49;96778.50;;;6.58;37.78
74270;BME280;62754;48.252;11.654;2023-04-04T10:57:17;96769.69;;;7.54;34.18
74270;BME280;62754;48.252;11.654;2023-04-04T11:00:09;96771.22;;;9.13;31.99
74270;BME280;62754;48.252;11.654;2023-04-04T11:05:35;96773.13;;;10.64;28.84
74270;BME280;62754;48.252;11.654;2023-04-04T11:08:09;96763.69;;;9.36;31.07
74270;BME280;62754;48.252;11.654;2023-04-04T11:10:42;96768.53;;;8.60;31.74
74270;BME280;62754;48.252;11.654;2023-04-04T11:21:02;96767.94;;;5.83;35.06
74270;BME280;62754;48.252;11.654;2023-04-04T11:26:12;96759.97;;;5.89;37.00
74270;BME280;62754;48.252;11.654;2023-04-04T11:34:28;96739.28;;;8.49;32.73
74270;BME280;62754;48.252;11.654;2023-04-04T11:36:56;96745.94;;;7.66;34.22
74270;BME280;62754;48.252;11.654;2023-04-04T11:44:20;96744.84;;;7.11;32.95
74270;BME280;62754;48.252;11.654;2023-04-04T11:46:54;96743.31;;;6.61;33.34
74270;BME280;62754;48.252;11.654;2023-04-04T11:49:25;96741.22;;;6.05;35.44
74270;BME280;62754;48.252;11.654;2023-04-04T11:51:54;96740.59;;;6.64;34.87
74270;BME280;62754;48.252;11.654;2023-04-04T11:54:22;96735.59;;;7.96;34.94
74270;BME280;62754;48.252;11.654;2023-04-04T11:56:48;96735.78;;;9.82;32.83
74270;BME280;62754;48.252;11.654;2023-04-04T11:59:18;96735.53;;;11.32;28.71
74270;BME280;62754;48.252;11.654;2023-04-04T12:01:44;96730.97;;;10.77;28.34
74270;BME280;62754;48.252;11.654;2023-04-04T12:04:13;96733.34;;;11.39;26.09
74270;BME280;62754;48.252;11.654;2023-04-04T12:06:41;96733.19;;;12.32;24.38
74270;BME280;62754;48.252;11.654;2023-04-04T12:09:12;96739.97;;;12.67;27.21
74270;BME280;62754;48.252;11.654;2023-04-04T12:11:44;96722.59;;;12.02;26.63
74270;BME280;62754;48.252;11.654;2023-04-04T12:16:44;96727.94;;;9.96;28.09
74270;BME280;62754;48.252;11.654;2023-04-04T12:19:11;96728.16;;;8.63;30.31
74270;BME280;62754;48.252;11.654;2023-04-04T12:21:37;96721.00;;;8.68;30.87
74270;BME280;62754;48.252;11.654;2023-04-04T12:24:03;96729.34;;;9.50;29.61
74270;BME280;62754;48.252;11.654;2023-04-04T12:26:29;96724.13;;;11.24;28.66
74270;BME280;62754;48.252;11.654;2023-04-04T12:28:58;96723.66;;;12.00;26.10
74270;BME280;62754;48.252;11.654;2023-04-04T12:31:27;96727.56;;;13.04;24.70
74270;BME280;62754;48.252;11.654;2023-04-04T12:33:58;96714.66;;;13.98;22.12
74270;BME280;62754;48.252;11.654;2023-04-04T12:36:28;96712.47;;;15.70;23.41
74270;BME280;62754;48.252;11.654;2023-04-04T12:39:06;96726.09;;;13.95;25.58
74270;BME280;62754;48.252;11.654;2023-04-04T12:41:32;96717.91;;;12.29;25.79
74270;BME280;62754;48.252;11.654;2023-04-04T12:44:07;96722.59;;;10.74;28.99
74270;BME280;62754;48.252;11.654;2023-04-04T12:46:37;96718.72;;;10.19;27.99
74270;BME280;62754;48.252;11.654;2023-04-04T12:49:04;96722.78;;;9.96;29.37
74270;BME280;62754;48.252;11.654;2023-04-04T12:51:34;96731.66;;;9.15;29.39
74270;BME280;62754;48.252;11.654;2023-04-04T12:54:03;96712.69;;;11.04;29.06
74270;BME280;62754;48.252;11.654;2023-04-04T12:56:30;96723.66;;;12.66;28.09
74270;BME280;62754;48.252;11.654;2023-04-04T12:59:06;96717.72;;;13.29;24.63
74270;BME280;62754;48.252;11.654;2023-04-04T13:01:32;96714.41;;;14.31;22.57
74270;BME280;62754;48.252;11.654;2023-04-04T13:04:00;96713.50;;;14.91;23.01
74270;BME280;62754;48.252;11.654;2023-04-04T13:06:29;96705.06;;;14.89;22.27
74270;BME280;62754;48.252;11.654;2023-04-04T13:08:55;96705.91;;;15.47;21.55
74270;BME280;62754;48.252;11.654;2023-04-04T13:11:24;96707.22;;;12.34;23.82
74270;BME280;62754;48.252;11.654;2023-04-04T13:14:06;96712.59;;;15.11;22.53
74270;BME280;62754;48.252;11.654;2023-04-04T13:16:33;96707.50;;;11.28;27.47
74270;BME280;62754;48.252;11.654;2023-04-04T13:19:02;96705.09;;;13.98;23.84
74270;BME280;62754;48.252;11.654;2023-04-04T13:21:31;96700.75;;;16.13;21.51
74270;BME280;62754;48.252;11.654;2023-04-04T13:24:00;96699.00;;;14.79;23.36
74270;BME280;62754;48.252;11.654;2023-04-04T13:26:31;96697.88;;;14.02;23.65
74270;BME280;62754;48.252;11.654;2023-04-04T13:28:59;96699.50;;;12.12;25.44